sensor_id;sensor_type;location;lat;lon;timestamp;temperature;humidity
5802;DHT22;2927;49.366;8.530;2023-10-13T00:02:11;16.30;99.90
5802;DHT22;2927;49.366;8.530;2023-10-13T00:04:36;16.40;99.90
5802;DHT22;2927;49.366;8.530;2023-10-13T00:07:03;16.40;99.90
5802;DHT22;2927;49.366;8.530;2023-10-13T00:09:30;16.40;99.90
5802;DHT22;2927;49.366;8.530;2023-10-13T00:12:01;16.40;99.90
5802;DHT22;2927;49.366;8.530;2023-10-13T00:14:29;16.40;99.90
5802;DHT22;2927;49.366;8.530;2023-10-13T00:17:00;16.40;99.90
5802;DHT22;2927;49.366;8.530;2023-10-13T00:19:41;16.50;99.90
5802;DHT22;2927;49.366;8.530;2023-10-13T00:22:11;16.50;99.90
5802;DHT22;2927;49.366;8.530;2023-10-13T00:24:39;16.60;99.90
5802;DHT22;2927;49.366;8.530;2023-10-13T00:27:12;16.60;99.90
5802;DHT22;2927;49.366;8.530;2023-10-13T00:30:03;16.60;99.90
5802;DHT22;2927;49.366;8.530;2023-10-13T00:32:52;16.70;99.90
5802;DHT22;2927;49.366;8.530;2023-10-13T00:35:26;16.70;99.90
5802;DHT22;2927;49.366;8.530;2023-10-13T00:38:02;16.70;99.90
5802;DHT22;2927;49.366;8.530;2023-10-13T00:40:42;16.80;99.90
5802;DHT22;2927;49.366;8.530;2023-10-13T00:43:09;16.80;99.90
5802;DHT22;2927;49.366;8.530;2023-10-13T00:45:58;16.90;99.90
5802;DHT22;2927;49.366;8.530;2023-10-13T00:48:29;16.90;99.90
5802;DHT22;2927;49.366;8.530;2023-10-13T00:51:00;16.90;99.90
5802;DHT22;2927;49.366;8.530;2023-10-13T00:53:29;16.90;99.90
5802;DHT22;2927;49.366;8.530;2023-10-13T00:55:56;16.90;99.90
5802;DHT22;2927;49.366;8.530;2023-10-13T00:58:22;16.90;99.90
5802;DHT22;2927;49.366;8.530;2023-10-13T01:00:49;17.00;99.90
5802;DHT22;2927;49.366;8.530;2023-10-13T01:03:22;17.00;99.90
5802;DHT22;2927;49.366;8.530;2023-10-13T01:05:55;16.90;99.90
5802;DHT22;2927;49.366;8.530;2023-10-13T01:08:33;16.90;99.90
5802;DHT22;2927;49.366;8.530;2023-10-13T01:11:04;16.90;99.90
5802;DHT22;2927;49.366;8.530;2023-10-13T01:13:32;16.80;99.90
5802;DHT22;2927;49.366;8.530;2023-10-13T01:16:01;16.80;99.90
5802;DHT22;2927;49.366;8.530;2023-10-13T01:18:27;16.80;99.90
5802;DHT22;2927;49.366;8.530;2023-10-13T01:20:54;16.70;99.90
5802;DHT22;2927;49.366;8.530;2023-10-13T01:23:25;16.60;99.90
5802;DHT22;2927;49.366;8.530;2023-10-13T01:25:54;16.60;99.90
5802;DHT22;2927;49.366;8.530;2023-10-13T01:28:21;16.70;99.90
5802;DHT22;2927;49.366;8.530;2023-10-13T01:30:47;16.60;99.90
5802;DHT22;2927;49.366;8.530;2023-10-13T01:33:19;16.50;99.90
5802;DHT22;2927;49.366;8.530;2023-10-13T01:35:52;16.50;99.90
5802;DHT22;2927;49.366;8.530;2023-10-13T01:38:20;16.40;99.90
5802;DHT22;2927;49.366;8.530;2023-10-13T01:40:46;16.40;99.90
5802;DHT22;2927;49.366;8.530;2023-10-13T01:43:16;16.40;99.90
5802;DHT22;2927;49.366;8.530;2023-10-13T01:45:43;16.30;99.90
5802;DHT22;2927;49.366;8.530;2023-10-13T01:48:15;16.20;99.90
5802;DHT22;2927;49.366;8.530;2023-10-13T01:50:43;16.20;99.90
5802;DHT22;2927;49.366;8.530;2023-10-13T01:53:13;16.20;99.90
5802;DHT22;2927;49.366;8.530;2023-10-13T01:55:40;16.20;99.90
5802;DHT22;2927;49.366;8.530;2023-10-13T01:58:13;16.20;99.90
5802;DHT22;2927;49.366;8.530;2023-10-13T02:00:43;16.20;99.90
5802;DHT22;2927;49.366;8.530;2023-10-13T02:03:10;16.20;99.90
5802;DHT22;2927;49.366;8.530;2023-10-13T02:05:48;16.10;99.90
5802;DHT22;2927;49.366;8.530;2023-10-13T02:08:21;16.10;99.90
5802;DHT22;2927;49.366;8.530;2023-10-13T02:10:54;16.00;99.90
5802;DHT22;2927;49.366;8.530;2023-10-13T02:13:21;15.90;99.90
5802;DHT22;2927;49.366;8.530;2023-10-13T02:15:49;15.80;99.90
5802;DHT22;2927;49.366;8.530;2023-10-13T02:18:18;15.70;99.90
5802;DHT22;2927;49.366;8.530;2023-10-13T02:20:56;15.60;99.90
5802;DHT22;2927;49.366;8.530;2023-10-13T02:23:30;15.60;99.90
5802;DHT22;2927;49.366;8.530;2023-10-13T02:26:05;15.70;99.90
5802;DHT22;2927;49.366;8.530;2023-10-13T02:28:38;15.60;99.90
5802;DHT22;2927;49.366;8.530;2023-10-13T02:31:04;15.60;99.90
5802;DHT22;2927;49.366;8.530;2023-10-13T02:33:30;15.60;99.90
5802;DHT22;2927;49.366;8.530;2023-10-13T02:36:00;15.50;99.90
5802;DHT22;2927;49.366;8.530;2023-10-13T02:38:30;15.40;99.90
5802;DHT22;2927;49.366;8.530;2023-10-13T02:41:03;15.40;99.90
5802;DHT22;2927;49.366;8.530;2023-10-13T02:43:35;15.30;99.90
5802;DHT22;2927;49.366;8.530;2023-10-13T02:46:02;15.20;99.90
5802;DHT22;2927;49.366;8.530;2023-10-13T02:48:29;15.10;99.90
5802;DHT22;2927;49.366;8.530;2023-10-13T02:51:08;15.00;99.90
5802;DHT22;2927;49.366;8.530;2023-10-13T02:53:44;15.00;99.90
5802;DHT22;2927;49.366;8.530;2023-10-13T02:56:18;15.00;99.90
5802;DHT22;2927;49.366;8.530;2023-10-13T02:58:51;14.90;99.90
5802;DHT22;2927;49.366;8.530;2023-10-13T03:01:22;14.90;99.90
5802;DHT22;2927;49.366;8.530;2023-10-13T03:03:53;14.90;99.90
5802;DHT22;2927;49.366;8.530;2023-10-13T03:06:23;15.00;99.90
5802;DHT22;2927;49.366;8.530;2023-10-13T03:09:00;14.90;99.90
5802;DHT22;2927;49.366;8.530;2023-10-13T03:11:41;14.90;99.90
5802;DHT22;2927;49.366;8.530;2023-10-13T03:14:16;14.90;99.90
5802;DHT22;2927;49.366;8.530;2023-10-13T03:19:17;14.80;99.90
5802;DHT22;2927;49.366;8.530;2023-10-13T03:21:45;14.80;99.90
5802;DHT22;2927;49.366;8.530;2023-10-13T03:24:13;14.80;99.90
5802;DHT22;2927;49.366;8.530;2023-10-13T03:26:39;14.70;99.90
5802;DHT22;2927;49.366;8.530;2023-10-13T03:29:09;14.70;99.90
5802;DHT22;2927;49.366;8.530;2023-10-13T03:31:39;14.80;99.90
5802;DHT22;2927;49.366;8.530;2023-10-13T03:34:05;14.80;99.90
5802;DHT22;2927;49.366;8.530;2023-10-13T03:36:37;14.80;99.90
5802;DHT22;2927;49.366;8.530;2023-10-13T03:39:22;14.90;99.90
5802;DHT22;2927;49.366;8.530;2023-10-13T03:41:54;14.90;99.90
5802;DHT22;2927;49.366;8.530;2023-10-13T03:44:19;15.00;99.90
5802;DHT22;2927;49.366;8.530;2023-10-13T03:46:46;15.10;99.90
5802;DHT22;2927;49.366;8.530;2023-10-13T03:49:15;15.10;99.90
5802;DHT22;2927;49.366;8.530;2023-10-13T03:51:45;15.20;99.90
5802;DHT22;2927;49.366;8.530;2023-10-13T03:54:11;15.30;99.90
5802;DHT22;2927;49.366;8.530;2023-10-13T03:56:40;15.40;99.90
5802;DHT22;2927;49.366;8.530;2023-10-13T03:59:08;15.50;99.90
5802;DHT22;2927;49.366;8.530;2023-10-13T04:01:52;15.60;99.90
5802;DHT22;2927;49.366;8.530;2023-10-13T04:04:24;15.60;99.90
5802;DHT22;2927;49.366;8.530;2023-10-13T04:06:56;15.60;99.90
5802;DHT22;2927;49.366;8.530;2023-10-13T04:09:40;15.70;99.90
5802;DHT22;2927;49.366;8.530;2023-10-13T04:12:06;15.70;99.90
5802;DHT22;2927;49.366;8.530;2023-10-13T04:14:41;15.70;99.90
5802;DHT22;2927;49.366;8.530;2023-10-13T04:17:26;15.80;99.90
5802;DHT22;2927;49.366;8.530;2023-10-13T04:19:56;15.80;99.90
5802;DHT22;2927;49.366;8.530;2023-10-13T04:27:57;15.80;99.90
5802;DHT22;2927;49.366;8.530;2023-10-13T04:30:41;15.80;99.90
5802;DHT22;2927;49.366;8.530;2023-10-13T04:33:26;15.80;99.90
5802;DHT22;2927;49.366;8.530;2023-10-13T04:38:52;15.70;99.90
5802;DHT22;2927;49.366;8.530;2023-10-13T04:41:18;15.70;99.90
5802;DHT22;2927;49.366;8.530;2023-10-13T04:43:48;15.80;99.90
5802;DHT22;2927;49.366;8.530;2023-10-13T04:46:23;15.80;99.90
5802;DHT22;2927;49.366;8.530;2023-10-13T04:49:05;15.80;99.90
5802;DHT22;2927;49.366;8.530;2023-10-13T04:51:58;15.70;99.90
5802;DHT22;2927;49.366;8.530;2023-10-13T04:54:28;15.70;99.90
5802;DHT22;2927;49.366;8.530;2023-10-13T04:57:02;15.60;99.90
5802;DHT22;2927;49.366;8.530;2023-10-13T05:00:03;15.60;99.90
5802;DHT22;2927;49.366;8.530;2023-10-13T05:02:35;15.60;95.50
5802;DHT22;2927;49.366;8.530;2023-10-13T05:05:02;15.50;99.90
5802;DHT22;2927;49.366;8.530;2023-10-13T05:07:31;15.50;94.20
5802;DHT22;2927;49.366;8.530;2023-10-13T05:10:17;15.40;99.90
5802;DHT22;2927;49.366;8.530;2023-10-13T05:13:01;15.40;99.90
5802;DHT22;2927;49.366;8.530;2023-10-13T05:15:49;15.20;99.90
5802;DHT22;2927;49.366;8.530;2023-10-13T05:18:34;15.10;99.90
5802;DHT22;2927;49.366;8.530;2023-10-13T05:21:18;15.10;99.90
5802;DHT22;2927;49.366;8.530;2023-10-13T05:24:05;15.10;99.90
5802;DHT22;2927;49.366;8.530;2023-10-13T05:26:51;15.00;99.90
5802;DHT22;2927;49.366;8.530;2023-10-13T05:29:44;15.00;99.90
5802;DHT22;2927;49.366;8.530;2023-10-13T05:32:30;15.00;91.30
5802;DHT22;2927;49.366;8.530;2023-10-13T05:35:15;15.00;78.20
5802;DHT22;2927;49.366;8.530;2023-10-13T05:38:00;15.10;22.60
5802;DHT22;2927;49.366;8.530;2023-10-13T05:41:01;15.00;11.40
5802;DHT22;2927;49.366;8.530;2023-10-13T05:43:45;15.10;1.00
5802;DHT22;2927;49.366;8.530;2023-10-13T05:46:30;15.10;1.00
5802;DHT22;2927;49.366;8.530;2023-10-13T05:49:17;15.10;1.00
5802;DHT22;2927;49.366;8.530;2023-10-13T05:51:43;15.20;1.00
5802;DHT22;2927;49.366;8.530;2023-10-13T05:54:13;15.30;1.00
5802;DHT22;2927;49.366;8.530;2023-10-13T05:59:23;15.40;1.00
5802;DHT22;2927;49.366;8.530;2023-10-13T06:02:07;15.50;99.90
5802;DHT22;2927;49.366;8.530;2023-10-13T06:04:51;15.50;99.90
5802;DHT22;2927;49.366;8.530;2023-10-13T06:07:36;15.60;99.90
5802;DHT22;2927;49.366;8.530;2023-10-13T06:10:21;15.70;99.90
5802;DHT22;2927;49.366;8.530;2023-10-13T06:13:05;15.70;99.90
5802;DHT22;2927;49.366;8.530;2023-10-13T06:15:49;15.80;1.00
5802;DHT22;2927;49.366;8.530;2023-10-13T06:18:33;15.80;1.00
5802;DHT22;2927;49.366;8.530;2023-10-13T06:21:17;16.00;1.00
5802;DHT22;2927;49.366;8.530;2023-10-13T06:24:01;16.20;99.90
5802;DHT22;2927;49.366;8.530;2023-10-13T06:26:47;16.30;1.00
5802;DHT22;2927;49.366;8.530;2023-10-13T06:29:31;16.30;99.90
5802;DHT22;2927;49.366;8.530;2023-10-13T06:31:58;16.40;99.90
5802;DHT22;2927;49.366;8.530;2023-10-13T06:34:30;16.50;99.90
5802;DHT22;2927;49.366;8.530;2023-10-13T06:37:16;16.60;1.00
5802;DHT22;2927;49.366;8.530;2023-10-13T06:39:50;16.70;1.00
5802;DHT22;2927;49.366;8.530;2023-10-13T06:42:16;16.80;1.00
5802;DHT22;2927;49.366;8.530;2023-10-13T06:44:44;16.90;1.00
5802;DHT22;2927;49.366;8.530;2023-10-13T06:47:12;17.10;99.90
5802;DHT22;2927;49.366;8.530;2023-10-13T06:49:40;17.40;99.90
5802;DHT22;2927;49.366;8.530;2023-10-13T06:52:08;18.10;1.00
5802;DHT22;2927;49.366;8.530;2023-10-13T06:54:36;19.00;1.00
5802;DHT22;2927;49.366;8.530;2023-10-13T06:57:04;20.20;99.90
5802;DHT22;2927;49.366;8.530;2023-10-13T06:59:33;20.70;99.90
5802;DHT22;2927;49.366;8.530;2023-10-13T07:02:00;20.30;99.90
5802;DHT22;2927;49.366;8.530;2023-10-13T07:04:32;19.70;99.90
5802;DHT22;2927;49.366;8.530;2023-10-13T07:06:57;20.30;99.90
5802;DHT22;2927;49.366;8.530;2023-10-13T07:09:26;21.20;99.90
5802;DHT22;2927;49.366;8.530;2023-10-13T07:12:02;21.30;99.90
5802;DHT22;2927;49.366;8.530;2023-10-13T07:14:49;21.70;99.90
5802;DHT22;2927;49.366;8.530;2023-10-13T07:17:18;22.80;30.30
5802;DHT22;2927;49.366;8.530;2023-10-13T07:19:50;23.40;1.00
5802;DHT22;2927;49.366;8.530;2023-10-13T07:22:19;23.70;1.00
5802;DHT22;2927;49.366;8.530;2023-10-13T07:24:49;23.70;1.00
5802;DHT22;2927;49.366;8.530;2023-10-13T07:27:24;24.20;1.00
5802;DHT22;2927;49.366;8.530;2023-10-13T07:29:56;24.60;1.00
5802;DHT22;2927;49.366;8.530;2023-10-13T07:32:30;24.50;1.00
5802;DHT22;2927;49.366;8.530;2023-10-13T07:34:59;24.50;1.00
5802;DHT22;2927;49.366;8.530;2023-10-13T07:37:35;24.60;1.00
5802;DHT22;2927;49.366;8.530;2023-10-13T07:40:03;25.00;1.00
5802;DHT22;2927;49.366;8.530;2023-10-13T07:42:47;25.30;1.00
5802;DHT22;2927;49.366;8.530;2023-10-13T07:45:12;25.60;1.00
5802;DHT22;2927;49.366;8.530;2023-10-13T07:47:38;26.10;1.00
5802;DHT22;2927;49.366;8.530;2023-10-13T07:50:05;26.30;1.00
5802;DHT22;2927;49.366;8.530;2023-10-13T07:52:32;27.00;1.00
5802;DHT22;2927;49.366;8.530;2023-10-13T07:55:07;26.90;1.00
5802;DHT22;2927;49.366;8.530;2023-10-13T07:57:47;26.80;1.00
5802;DHT22;2927;49.366;8.530;2023-10-13T08:00:21;27.20;1.00
5802;DHT22;2927;49.366;8.530;2023-10-13T08:03:06;27.20;1.00
5802;DHT22;2927;49.366;8.530;2023-10-13T08:05:53;27.30;1.00
5802;DHT22;2927;49.366;8.530;2023-10-13T08:08:32;27.10;1.00
5802;DHT22;2927;49.366;8.530;2023-10-13T08:11:08;27.00;1.00
5802;DHT22;2927;49.366;8.530;2023-10-13T08:13:41;27.00;1.00
5802;DHT22;2927;49.366;8.530;2023-10-13T08:16:16;27.30;1.00
5802;DHT22;2927;49.366;8.530;2023-10-13T08:18:49;27.40;1.00
5802;DHT22;2927;49.366;8.530;2023-10-13T08:21:20;28.00;1.00
5802;DHT22;2927;49.366;8.530;2023-10-13T08:23:51;28.00;1.00
5802;DHT22;2927;49.366;8.530;2023-10-13T08:26:21;27.80;1.00
5802;DHT22;2927;49.366;8.530;2023-10-13T08:29:03;27.60;1.00
5802;DHT22;2927;49.366;8.530;2023-10-13T08:31:44;27.80;1.00
5802;DHT22;2927;49.366;8.530;2023-10-13T08:34:34;28.20;1.00
5802;DHT22;2927;49.366;8.530;2023-10-13T08:37:09;28.30;1.00
5802;DHT22;2927;49.366;8.530;2023-10-13T08:39:52;28.90;1.00
5802;DHT22;2927;49.366;8.530;2023-10-13T08:42:44;29.10;1.00
5802;DHT22;2927;49.366;8.530;2023-10-13T08:45:14;29.60;1.00
5802;DHT22;2927;49.366;8.530;2023-10-13T08:47:50;29.70;1.00
5802;DHT22;2927;49.366;8.530;2023-10-13T08:50:54;29.90;1.00
5802;DHT22;2927;49.366;8.530;2023-10-13T08:53:28;30.50;1.00
5802;DHT22;2927;49.366;8.530;2023-10-13T08:55:57;30.30;1.00
5802;DHT22;2927;49.366;8.530;2023-10-13T08:58:29;28.90;1.00
5802;DHT22;2927;49.366;8.530;2023-10-13T09:01:15;28.20;1.00
5802;DHT22;2927;49.366;8.530;2023-10-13T09:04:12;28.60;1.00
5802;DHT22;2927;49.366;8.530;2023-10-13T09:06:48;29.00;1.00
5802;DHT22;2927;49.366;8.530;2023-10-13T09:09:29;29.40;1.00
5802;DHT22;2927;49.366;8.530;2023-10-13T09:12:23;30.00;1.00
5802;DHT22;2927;49.366;8.530;2023-10-13T09:15:00;30.50;1.00
5802;DHT22;2927;49.366;8.530;2023-10-13T09:20:38;30.90;1.00
5802;DHT22;2927;49.366;8.530;2023-10-13T09:23:11;30.60;1.00
5802;DHT22;2927;49.366;8.530;2023-10-13T09:25:39;30.90;1.00
5802;DHT22;2927;49.366;8.530;2023-10-13T09:28:24;30.00;1.00
5802;DHT22;2927;49.366;8.530;2023-10-13T09:30:56;28.70;1.00
5802;DHT22;2927;49.366;8.530;2023-10-13T09:33:27;27.60;1.00
5802;DHT22;2927;49.366;8.530;2023-10-13T09:36:02;26.80;1.00
5802;DHT22;2927;49.366;8.530;2023-10-13T09:38:32;26.40;1.00
5802;DHT22;2927;49.366;8.530;2023-10-13T09:40:58;26.10;1.00
5802;DHT22;2927;49.366;8.530;2023-10-13T09:43:43;25.90;1.00
5802;DHT22;2927;49.366;8.530;2023-10-13T09:46:10;25.70;1.00
5802;DHT22;2927;49.366;8.530;2023-10-13T09:48:46;25.60;1.00
5802;DHT22;2927;49.366;8.530;2023-10-13T09:51:14;25.30;1.00
5802;DHT22;2927;49.366;8.530;2023-10-13T09:53:42;25.20;1.00
5802;DHT22;2927;49.366;8.530;2023-10-13T09:56:32;25.20;1.00
5802;DHT22;2927;49.366;8.530;2023-10-13T09:59:15;25.30;1.00
5802;DHT22;2927;49.366;8.530;2023-10-13T10:01:43;25.40;1.00
5802;DHT22;2927;49.366;8.530;2023-10-13T10:04:24;25.50;1.00
5802;DHT22;2927;49.366;8.530;2023-10-13T10:06:57;25.50;1.00
5802;DHT22;2927;49.366;8.530;2023-10-13T10:09:33;25.50;1.00
5802;DHT22;2927;49.366;8.530;2023-10-13T10:12:16;25.40;1.00
5802;DHT22;2927;49.366;8.530;2023-10-13T10:17:27;25.80;1.00
5802;DHT22;2927;49.366;8.530;2023-10-13T10:19:55;26.10;1.00
5802;DHT22;2927;49.366;8.530;2023-10-13T10:22:33;26.10;1.00
5802;DHT22;2927;49.366;8.530;2023-10-13T10:25:05;26.20;1.00
5802;DHT22;2927;49.366;8.530;2023-10-13T10:27:59;26.30;1.00
5802;DHT22;2927;49.366;8.530;2023-10-13T10:30:29;26.40;1.00
5802;DHT22;2927;49.366;8.530;2023-10-13T10:32:58;26.50;1.00
5802;DHT22;2927;49.366;8.530;2023-10-13T10:35:33;26.60;1.00
5802;DHT22;2927;49.366;8.530;2023-10-13T10:38:16;26.40;1.00
5802;DHT22;2927;49.366;8.530;2023-10-13T10:41:05;26.10;1.00
5802;DHT22;2927;49.366;8.530;2023-10-13T10:43:39;26.10;1.00
5802;DHT22;2927;49.366;8.530;2023-10-13T10:46:14;26.10;1.00
5802;DHT22;2927;49.366;8.530;2023-10-13T10:48:41;26.10;1.00
5802;DHT22;2927;49.366;8.530;2023-10-13T10:51:10;26.00;1.00
5802;DHT22;2927;49.366;8.530;2023-10-13T10:53:58;26.00;1.00
5802;DHT22;2927;49.366;8.530;2023-10-13T10:56:37;26.10;1.00
5802;DHT22;2927;49.366;8.530;2023-10-13T10:59:06;26.10;1.00
5802;DHT22;2927;49.366;8.530;2023-10-13T11:01:43;26.20;1.00
5802;DHT22;2927;49.366;8.530;2023-10-13T11:04:18;26.40;1.00
5802;DHT22;2927;49.366;8.530;2023-10-13T11:06:54;26.40;1.00
5802;DHT22;2927;49.366;8.530;2023-10-13T11:09:27;26.40;1.00
5802;DHT22;2927;49.366;8.530;2023-10-13T11:11:57;26.70;1.00
5802;DHT22;2927;49.366;8.530;2023-10-13T11:15:03;26.90;1.00
5802;DHT22;2927;49.366;8.530;2023-10-13T11:17:34;27.10;1.00
5802;DHT22;2927;49.366;8.530;2023-10-13T11:20:20;27.40;1.00
5802;DHT22;2927;49.366;8.530;2023-10-13T11:23:15;27.50;1.00
5802;DHT22;2927;49.366;8.530;2023-10-13T11:25:41;27.60;1.00
5802;DHT22;2927;49.366;8.530;2023-10-13T11:28:15;27.70;1.00
5802;DHT22;2927;49.366;8.530;2023-10-13T11:30:53;28.00;1.00
5802;DHT22;2927;49.366;8.530;2023-10-13T11:33:22;28.10;1.00
5802;DHT22;2927;49.366;8.530;2023-10-13T11:35:58;28.20;1.00
5802;DHT22;2927;49.366;8.530;2023-10-13T11:38:29;28.10;1.00
5802;DHT22;2927;49.366;8.530;2023-10-13T11:41:07;28.20;1.00
5802;DHT22;2927;49.366;8.530;2023-10-13T11:43:41;28.30;1.00
5802;DHT22;2927;49.366;8.530;2023-10-13T11:46:20;28.50;1.00
5802;DHT22;2927;49.366;8.530;2023-10-13T11:49:11;28.40;1.00
5802;DHT22;2927;49.366;8.530;2023-10-13T11:51:58;28.50;1.00
5802;DHT22;2927;49.366;8.530;2023-10-13T11:54:35;28.70;1.00
5802;DHT22;2927;49.366;8.530;2023-10-13T11:57:07;28.60;1.00
5802;DHT22;2927;49.366;8.530;2023-10-13T11:59:33;28.60;1.00
5802;DHT22;2927;49.366;8.530;2023-10-13T12:02:02;28.50;1.00
5802;DHT22;2927;49.366;8.530;2023-10-13T12:04:38;28.50;1.00
5802;DHT22;2927;49.366;8.530;2023-10-13T12:07:14;28.40;1.00
5802;DHT22;2927;49.366;8.530;2023-10-13T12:09:44;28.30;1.00
5802;DHT22;2927;49.366;8.530;2023-10-13T12:12:22;28.00;1.00
5802;DHT22;2927;49.366;8.530;2023-10-13T12:14:48;27.80;1.00
5802;DHT22;2927;49.366;8.530;2023-10-13T12:17:23;27.60;1.00
5802;DHT22;2927;49.366;8.530;2023-10-13T12:20:05;27.50;1.00
5802;DHT22;2927;49.366;8.530;2023-10-13T12:22:32;27.50;1.00
5802;DHT22;2927;49.366;8.530;2023-10-13T12:25:17;27.80;1.00
5802;DHT22;2927;49.366;8.530;2023-10-13T12:27:57;27.90;1.00
5802;DHT22;2927;49.366;8.530;2023-10-13T12:30:25;28.20;1.00
5802;DHT22;2927;49.366;8.530;2023-10-13T12:33:09;28.50;1.00
5802;DHT22;2927;49.366;8.530;2023-10-13T12:35:41;28.50;1.00
5802;DHT22;2927;49.366;8.530;2023-10-13T12:38:11;28.60;1.00
5802;DHT22;2927;49.366;8.530;2023-10-13T12:40:56;28.80;1.00
5802;DHT22;2927;49.366;8.530;2023-10-13T12:43:40;28.70;1.00
5802;DHT22;2927;49.366;8.530;2023-10-13T12:46:24;28.30;1.00
5802;DHT22;2927;49.366;8.530;2023-10-13T12:49:09;28.10;1.00
5802;DHT22;2927;49.366;8.530;2023-10-13T12:52:00;27.90;1.00
5802;DHT22;2927;49.366;8.530;2023-10-13T12:54:25;27.70;1.00
5802;DHT22;2927;49.366;8.530;2023-10-13T12:57:00;27.50;1.00
5802;DHT22;2927;49.366;8.530;2023-10-13T12:59:26;27.50;1.00
5802;DHT22;2927;49.366;8.530;2023-10-13T13:01:53;27.50;1.00
5802;DHT22;2927;49.366;8.530;2023-10-13T13:04:19;27.40;1.00
5802;DHT22;2927;49.366;8.530;2023-10-13T13:06:52;27.50;1.00
5802;DHT22;2927;49.366;8.530;2023-10-13T13:09:20;27.50;1.00
5802;DHT22;2927;49.366;8.530;2023-10-13T13:11:52;27.60;1.00
5802;DHT22;2927;49.366;8.530;2023-10-13T13:14:23;27.80;1.00
5802;DHT22;2927;49.366;8.530;2023-10-13T13:16:57;28.00;1.00
5802;DHT22;2927;49.366;8.530;2023-10-13T13:19:33;28.10;1.00
5802;DHT22;2927;49.366;8.530;2023-10-13T13:22:02;28.20;1.00
5802;DHT22;2927;49.366;8.530;2023-10-13T13:24:35;28.30;1.00
5802;DHT22;2927;49.366;8.530;2023-10-13T13:27:00;28.20;1.00
5802;DHT22;2927;49.366;8.530;2023-10-13T13:29:29;28.10;1.00
5802;DHT22;2927;49.366;8.530;2023-10-13T13:31:55;28.10;1.00
5802;DHT22;2927;49.366;8.530;2023-10-13T13:34:21;28.10;1.00
5802;DHT22;2927;49.366;8.530;2023-10-13T13:36:47;28.10;1.00
5802;DHT22;2927;49.366;8.530;2023-10-13T13:39:18;28.00;1.00
5802;DHT22;2927;49.366;8.530;2023-10-13T13:41:54;28.20;1.00
5802;DHT22;2927;49.366;8.530;2023-10-13T13:44:25;28.20;1.00
5802;DHT22;2927;49.366;8.530;2023-10-13T13:47:01;28.10;1.00
5802;DHT22;2927;49.366;8.530;2023-10-13T13:49:53;28.30;1.00
5802;DHT22;2927;49.366;8.530;2023-10-13T13:52:20;28.30;1.00
5802;DHT22;2927;49.366;8.530;2023-10-13T13:54:58;28.30;1.00
5802;DHT22;2927;49.366;8.530;2023-10-13T13:57:28;28.30;1.00
5802;DHT22;2927;49.366;8.530;2023-10-13T13:59:55;28.10;1.00
5802;DHT22;2927;49.366;8.530;2023-10-13T14:02:23;28.20;1.00
5802;DHT22;2927;49.366;8.530;2023-10-13T14:04:48;28.20;1.00
5802;DHT22;2927;49.366;8.530;2023-10-13T14:07:20;28.20;1.00
5802;DHT22;2927;49.366;8.530;2023-10-13T14:09:46;28.10;1.00
5802;DHT22;2927;49.366;8.530;2023-10-13T14:12:17;27.90;1.00
5802;DHT22;2927;49.366;8.530;2023-10-13T14:15:01;27.80;1.00
5802;DHT22;2927;49.366;8.530;2023-10-13T14:17:27;27.60;1.00
5802;DHT22;2927;49.366;8.530;2023-10-13T14:20:01;27.50;1.00
5802;DHT22;2927;49.366;8.530;2023-10-13T14:22:34;27.40;1.00
5802;DHT22;2927;49.366;8.530;2023-10-13T14:25:02;27.30;1.00
5802;DHT22;2927;49.366;8.530;2023-10-13T14:27:36;27.30;1.00
5802;DHT22;2927;49.366;8.530;2023-10-13T14:30:02;27.40;1.00
5802;DHT22;2927;49.366;8.530;2023-10-13T14:32:28;27.60;1.00
5802;DHT22;2927;49.366;8.530;2023-10-13T14:34:54;27.60;1.00
5802;DHT22;2927;49.366;8.530;2023-10-13T14:37:21;27.80;1.00
5802;DHT22;2927;49.366;8.530;2023-10-13T14:39:56;27.80;1.00
5802;DHT22;2927;49.366;8.530;2023-10-13T14:42:24;27.80;1.00
5802;DHT22;2927;49.366;8.530;2023-10-13T14:44:49;28.00;1.00
5802;DHT22;2927;49.366;8.530;2023-10-13T14:47:24;28.10;1.00
5802;DHT22;2927;49.366;8.530;2023-10-13T14:49:53;28.10;1.00
5802;DHT22;2927;49.366;8.530;2023-10-13T14:52:27;28.20;1.00
5802;DHT22;2927;49.366;8.530;2023-10-13T14:54:52;28.20;1.00
5802;DHT22;2927;49.366;8.530;2023-10-13T14:57:24;28.20;1.00
5802;DHT22;2927;49.366;8.530;2023-10-13T14:59:53;28.10;1.00
5802;DHT22;2927;49.366;8.530;2023-10-13T15:02:20;28.00;1.00
5802;DHT22;2927;49.366;8.530;2023-10-13T15:04:47;28.00;1.00
5802;DHT22;2927;49.366;8.530;2023-10-13T15:07:14;28.00;1.00
5802;DHT22;2927;49.366;8.530;2023-10-13T15:09:44;28.00;1.00
5802;DHT22;2927;49.366;8.530;2023-10-13T15:12:10;27.90;1.00
5802;DHT22;2927;49.366;8.530;2023-10-13T15:14:39;27.90;1.00
5802;DHT22;2927;49.366;8.530;2023-10-13T15:17:08;27.90;1.00
5802;DHT22;2927;49.366;8.530;2023-10-13T15:19:34;27.90;1.00
5802;DHT22;2927;49.366;8.530;2023-10-13T15:22:08;27.90;1.00
5802;DHT22;2927;49.366;8.530;2023-10-13T15:24:38;27.90;1.00
5802;DHT22;2927;49.366;8.530;2023-10-13T15:27:25;27.80;1.00
5802;DHT22;2927;49.366;8.530;2023-10-13T15:29:54;27.70;1.00
5802;DHT22;2927;49.366;8.530;2023-10-13T15:32:19;27.60;1.00
5802;DHT22;2927;49.366;8.530;2023-10-13T15:35:04;27.60;1.00
5802;DHT22;2927;49.366;8.530;2023-10-13T15:37:29;27.40;1.00
5802;DHT22;2927;49.366;8.530;2023-10-13T15:39:55;27.40;1.00
5802;DHT22;2927;49.366;8.530;2023-10-13T15:42:23;27.30;1.00
5802;DHT22;2927;49.366;8.530;2023-10-13T15:44:48;27.20;1.00
5802;DHT22;2927;49.366;8.530;2023-10-13T15:47:15;27.10;1.00
5802;DHT22;2927;49.366;8.530;2023-10-13T15:49:41;27.10;1.00
5802;DHT22;2927;49.366;8.530;2023-10-13T15:52:08;26.90;1.00
5802;DHT22;2927;49.366;8.530;2023-10-13T15:54:35;26.80;1.00
5802;DHT22;2927;49.366;8.530;2023-10-13T15:57:00;26.70;1.00
5802;DHT22;2927;49.366;8.530;2023-10-13T15:59:26;26.60;1.00
5802;DHT22;2927;49.366;8.530;2023-10-13T16:01:52;26.50;1.00
5802;DHT22;2927;49.366;8.530;2023-10-13T16:04:23;26.30;1.00
5802;DHT22;2927;49.366;8.530;2023-10-13T16:06:48;26.20;1.00
5802;DHT22;2927;49.366;8.530;2023-10-13T16:09:19;26.10;1.00
5802;DHT22;2927;49.366;8.530;2023-10-13T16:11:51;25.90;1.00
5802;DHT22;2927;49.366;8.530;2023-10-13T16:14:17;25.80;1.00
5802;DHT22;2927;49.366;8.530;2023-10-13T16:16:47;25.70;1.00
5802;DHT22;2927;49.366;8.530;2023-10-13T16:19:14;25.50;1.00
5802;DHT22;2927;49.366;8.530;2023-10-13T16:21:43;25.40;1.00
5802;DHT22;2927;49.366;8.530;2023-10-13T16:24:09;25.30;1.00
5802;DHT22;2927;49.366;8.530;2023-10-13T16:26:37;25.10;1.00
5802;DHT22;2927;49.366;8.530;2023-10-13T16:29:06;25.00;1.00
5802;DHT22;2927;49.366;8.530;2023-10-13T16:31:32;25.00;1.00
5802;DHT22;2927;49.366;8.530;2023-10-13T16:33:58;24.90;1.00
5802;DHT22;2927;49.366;8.530;2023-10-13T16:36:28;24.90;1.00
5802;DHT22;2927;49.366;8.530;2023-10-13T16:38:56;24.90;1.00
5802;DHT22;2927;49.366;8.530;2023-10-13T16:41:26;24.80;1.00
5802;DHT22;2927;49.366;8.530;2023-10-13T16:43:55;24.80;1.00
5802;DHT22;2927;49.366;8.530;2023-10-13T16:46:20;24.70;1.00
5802;DHT22;2927;49.366;8.530;2023-10-13T16:48:46;24.60;1.00
5802;DHT22;2927;49.366;8.530;2023-10-13T16:51:14;24.40;1.00
5802;DHT22;2927;49.366;8.530;2023-10-13T16:53:41;24.30;1.00
5802;DHT22;2927;49.366;8.530;2023-10-13T16:56:07;24.20;1.00
5802;DHT22;2927;49.366;8.530;2023-10-13T16:58:33;24.10;1.00
5802;DHT22;2927;49.366;8.530;2023-10-13T17:01:00;24.10;1.00
5802;DHT22;2927;49.366;8.530;2023-10-13T17:03:29;24.00;1.00
5802;DHT22;2927;49.366;8.530;2023-10-13T17:05:57;24.00;1.00
5802;DHT22;2927;49.366;8.530;2023-10-13T17:08:25;24.00;1.00
5802;DHT22;2927;49.366;8.530;2023-10-13T17:10:55;23.90;1.00
5802;DHT22;2927;49.366;8.530;2023-10-13T17:13:20;23.70;1.00